Terminal Aerodrome Forecast
Issued by NWS Atlanta, GA

Home | Current Version | Previous Version | Text Only | Print | Product List | Glossary On
Versions: 1 2 3 4 5 6 7 8 9 10 11 12 13 14 15 16 17 18 19
000
FTUS42 KFFC 010531
TAFCSG
TAF
KCSG 010531Z 0106/0206 14004KT P6SM FEW022 SCT040 BKN090
     FM010900 17008KT P6SM VCSH SCT012 BKN020
     FM011100 18010G18KT 5SM -SHRA BR SCT012 OVC020
      TEMPO 0112/0115 3SM TSRA BKN012CB OVC022
     FM011600 24013G22KT P6SM VCSH SCT018 BKN030
     FM011800 23015G25KT P6SM SCT050
     FM020000 26007KT P6SM SKC=

USA.gov is the U.S. government's official web portal to all federal, state and local government web resources and services.